createdAt,value
2023-05-19T04:03:34.452Z,79.89
2023-05-19T04:07:46.976Z,79.72
2023-05-19T04:11:58.574Z,80.14
2023-05-19T04:16:10.220Z,79.46
2023-05-19T04:20:21.794Z,78.94
2023-05-19T04:24:33.826Z,78.76
2023-05-19T04:28:45.814Z,78.95
2023-05-19T04:32:58.198Z,78.73
2023-05-19T04:37:10.353Z,77.94
2023-05-19T04:41:22.967Z,78.38
2023-05-19T04:45:34.921Z,77.78
2023-05-19T04:49:48.354Z,77.36
2023-05-19T04:54:00.237Z,77.29
2023-05-19T04:58:12.020Z,76.28
2023-05-19T05:02:23.858Z,76.40
2023-05-19T05:06:38.619Z,75.96
2023-05-19T05:10:52.680Z,75.70
2023-05-19T05:15:06.892Z,75.83
2023-05-19T05:19:18.784Z,75.26
2023-05-19T05:23:30.702Z,75.01
2023-05-19T05:27:42.735Z,74.83
2023-05-19T05:31:54.489Z,69.66
2023-05-19T05:36:07.654Z,61.96
2023-05-19T05:40:25.872Z,59.21
2023-05-19T05:44:38.389Z,56.54
2023-05-19T05:48:51.542Z,51.13
2023-05-19T05:53:06.517Z,52.25
2023-05-19T05:57:19.569Z,54.30
2023-05-19T06:01:33.592Z,55.14
2023-05-19T06:05:46.861Z,54.94
2023-05-19T06:09:58.514Z,57.07
2023-05-19T06:14:10.566Z,55.26
2023-05-19T06:18:51.358Z,51.95
2023-05-19T06:23:03.442Z,55.59
2023-05-19T06:27:15.570Z,57.30
2023-05-19T06:31:29.003Z,56.57
2023-05-19T06:35:43.716Z,55.50
2023-05-19T06:39:55.473Z,56.88
2023-05-19T06:44:08.985Z,57.17
2023-05-19T06:48:20.542Z,57.51
2023-05-19T06:52:32.824Z,58.11
2023-05-19T06:56:46.221Z,57.66
2023-05-19T07:00:59.396Z,56.92
2023-05-19T07:05:16.693Z,57.72
2023-05-19T07:09:33.291Z,57.00
2023-05-19T07:13:44.927Z,56.33
2023-05-19T07:17:58.671Z,56.99
2023-05-19T07:22:10.880Z,56.36
2023-05-19T07:26:22.720Z,55.89
2023-05-19T07:30:34.495Z,57.34
2023-05-19T07:34:46.368Z,57.25
2023-05-19T07:38:57.997Z,57.43
2023-05-19T07:43:09.564Z,56.58
2023-05-19T07:47:21.121Z,55.70
2023-05-19T07:51:33.161Z,54.71
2023-05-19T07:55:45.206Z,54.79
2023-05-19T07:59:56.860Z,55.07
2023-05-19T08:04:11.924Z,54.30
2023-05-19T08:08:24.743Z,54.91
2023-05-19T08:12:36.634Z,55.17
2023-05-19T08:16:50.221Z,54.64
2023-05-19T08:21:05.431Z,54.73
2023-05-19T08:25:17.517Z,54.52
2023-05-19T08:34:21.166Z,54.60
2023-05-19T08:38:33.376Z,56.45
2023-05-19T08:42:46.483Z,56.28
2023-05-19T08:47:03.514Z,54.33
2023-05-19T08:51:26.141Z,55.57
2023-05-19T08:55:50.209Z,55.28
2023-05-19T09:00:04.404Z,55.48
2023-05-19T09:04:17.036Z,56.74
2023-05-19T09:08:28.901Z,55.28
2023-05-19T09:12:41.793Z,55.21
2023-05-19T09:16:54.052Z,54.13
2023-05-19T09:21:07.322Z,53.34
2023-05-19T09:25:19.639Z,54.37
2023-05-19T09:29:31.479Z,53.08
2023-05-19T09:33:45.587Z,52.15
2023-05-19T09:37:57.736Z,52.72
2023-05-19T09:42:09.276Z,51.89
2023-05-19T09:46:28.284Z,52.37
2023-05-19T09:50:40.223Z,52.19
2023-05-19T09:54:52.161Z,52.36
2023-05-19T09:59:04.068Z,51.56
2023-05-19T10:03:17.776Z,52.02
2023-05-19T10:07:29.811Z,51.43
2023-05-19T10:11:41.876Z,50.47
2023-05-19T10:15:58.824Z,49.93
2023-05-19T10:20:16.123Z,49.16
2023-05-19T10:24:27.803Z,48.74
2023-05-19T10:28:42.940Z,48.24
2023-05-19T10:32:57.175Z,47.35
2023-05-19T10:37:20.557Z,47.41
2023-05-19T10:41:41.498Z,46.63
2023-05-19T10:45:54.630Z,46.59
2023-05-19T10:50:07.275Z,46.05
2023-05-19T10:54:40.683Z,46.94
2023-05-19T10:58:52.949Z,45.47
2023-05-19T11:03:14.743Z,46.21
2023-05-19T11:07:26.536Z,44.47
2023-05-19T11:11:48.176Z,44.28
2023-05-19T11:16:07.616Z,43.88
2023-05-19T11:20:30.624Z,44.59
2023-05-19T11:24:50.568Z,44.10
2023-05-19T11:29:02.321Z,43.71
2023-05-19T11:33:15.292Z,42.58
2023-05-19T11:37:29.695Z,41.63
2023-05-19T11:41:41.613Z,42.28
2023-05-19T11:46:14.452Z,41.58
2023-05-19T11:50:26.641Z,40.40
2023-05-19T11:54:39.308Z,42.03
2023-05-19T11:58:53.284Z,41.30
2023-05-19T12:03:05.623Z,41.00
2023-05-19T12:07:19.301Z,40.36
2023-05-19T12:11:31.762Z,40.39
2023-05-19T12:15:43.511Z,40.22
2023-05-19T12:19:55.164Z,41.16
2023-05-19T12:24:07.104Z,41.61
2023-05-19T12:28:19.547Z,40.94
2023-05-19T12:32:34.174Z,41.19
2023-05-19T12:36:46.548Z,41.43
2023-05-19T12:41:01.070Z,40.81
2023-05-19T12:45:12.615Z,41.80
2023-05-19T12:49:24.233Z,41.42
2023-05-19T12:53:37.520Z,41.89
2023-05-19T12:57:51.843Z,42.39
2023-05-19T13:02:03.549Z,42.70
2023-05-19T13:06:15.198Z,42.07
2023-05-19T13:10:27.713Z,41.59
2023-05-19T13:14:41.756Z,42.57
2023-05-19T13:18:53.439Z,43.18
2023-05-19T13:23:05.804Z,43.14
2023-05-19T13:27:17.445Z,43.08
2023-05-19T13:31:28.993Z,42.60
2023-05-19T13:35:40.556Z,41.85
2023-05-19T13:39:52.301Z,42.93
2023-05-19T13:44:03.913Z,43.40
2023-05-19T13:48:15.623Z,42.78
2023-05-19T13:52:58.360Z,43.58
2023-05-19T13:56:58.681Z,41.62
2023-05-19T14:01:10.313Z,42.73
2023-05-19T14:05:21.904Z,42.06
2023-05-19T14:09:33.930Z,42.14
2023-05-19T14:13:46.208Z,41.82
2023-05-19T14:17:58.973Z,42.13
2023-05-19T14:22:10.753Z,42.06
2023-05-19T14:26:22.480Z,41.93
2023-05-19T14:30:34.356Z,42.02
2023-05-19T14:34:46.144Z,43.26
2023-05-19T14:38:57.755Z,43.08
2023-05-19T14:43:09.591Z,43.76
2023-05-19T14:47:21.342Z,43.56
2023-05-19T14:51:32.985Z,43.84
2023-05-19T14:55:44.590Z,44.03
2023-05-19T14:59:56.398Z,44.88
2023-05-19T15:04:08.065Z,45.26
2023-05-19T15:08:19.637Z,45.38
2023-05-19T15:12:31.258Z,45.09
2023-05-19T15:16:43.013Z,45.84
2023-05-19T15:20:54.571Z,46.02
2023-05-19T15:25:06.734Z,46.70
2023-05-19T15:29:18.291Z,47.19
2023-05-19T15:33:29.867Z,47.39
2023-05-19T15:37:41.472Z,46.81
2023-05-19T15:41:53.178Z,47.49
2023-05-19T15:46:05.238Z,48.31
2023-05-19T15:50:17.099Z,48.64
2023-05-19T15:54:28.837Z,48.73
2023-05-19T15:58:40.481Z,49.40
2023-05-19T16:02:52.096Z,49.88
2023-05-19T16:07:04.356Z,50.43
2023-05-19T16:11:20.572Z,50.01
2023-05-19T16:15:32.136Z,49.97
2023-05-19T16:19:43.708Z,50.37
2023-05-19T16:23:55.339Z,50.07
2023-05-19T16:28:07.033Z,50.14
2023-05-19T16:32:18.630Z,50.09
2023-05-19T16:36:30.194Z,49.19
2023-05-19T16:40:41.775Z,49.84
2023-05-19T16:44:53.341Z,49.74
2023-05-19T16:49:05.970Z,49.46
2023-05-19T16:53:17.533Z,49.92
2023-05-19T16:57:29.080Z,49.32
2023-05-19T17:01:40.873Z,50.10
2023-05-19T17:05:52.544Z,50.23
2023-05-19T17:10:04.420Z,50.38
2023-05-19T17:14:16.039Z,50.49
2023-05-19T17:18:28.195Z,49.66
2023-05-19T17:22:39.784Z,50.36
2023-05-19T17:26:51.428Z,50.83
2023-05-19T17:31:09.991Z,51.10
2023-05-19T17:35:21.582Z,51.68
2023-05-19T17:39:33.228Z,52.24
2023-05-19T17:43:44.903Z,52.39
2023-05-19T17:47:56.576Z,53.19
2023-05-19T17:52:08.782Z,52.98
2023-05-19T17:56:22.025Z,52.94
2023-05-19T18:00:34.169Z,52.76
2023-05-19T18:04:46.508Z,53.23
2023-05-19T18:09:01.040Z,53.32
2023-05-19T18:13:15.424Z,53.86
2023-05-19T18:17:27.064Z,54.57
2023-05-19T18:21:38.639Z,54.73
2023-05-19T18:25:51.711Z,54.90
2023-05-19T18:30:03.370Z,55.30
2023-05-19T18:34:14.939Z,56.66
2023-05-19T18:38:26.554Z,56.67
2023-05-19T18:42:38.078Z,57.09
2023-05-19T18:46:49.746Z,58.73
2023-05-19T18:51:03.420Z,60.66
2023-05-19T18:55:15.011Z,60.08
2023-05-19T18:59:26.793Z,61.11
2023-05-19T19:03:38.391Z,63.09
2023-05-19T19:07:50.197Z,62.43
2023-05-19T19:12:02.035Z,63.48
2023-05-19T19:16:13.692Z,62.52
2023-05-19T19:20:25.268Z,63.27
2023-05-19T19:24:36.936Z,64.45
2023-05-19T19:28:48.494Z,65.89
2023-05-19T19:33:00.222Z,66.83
2023-05-19T19:37:14.290Z,66.82
2023-05-19T19:41:28.030Z,68.98
2023-05-19T19:45:39.577Z,70.88
2023-05-19T19:49:51.325Z,69.79
2023-05-19T19:54:03.728Z,70.45
2023-05-19T19:58:15.364Z,70.68
2023-05-19T20:02:27.007Z,71.34
2023-05-19T20:06:38.726Z,73.05
2023-05-19T20:10:50.562Z,71.05
2023-05-19T20:15:02.130Z,71.54
2023-05-19T20:19:13.748Z,71.52
2023-05-19T20:23:25.353Z,73.27
2023-05-19T20:27:36.908Z,74.04
2023-05-19T20:31:48.466Z,74.05
2023-05-19T20:36:00.242Z,73.43
2023-05-19T20:40:12.442Z,75.09
2023-05-19T20:44:24.093Z,74.34
2023-05-19T20:48:35.919Z,74.90
2023-05-19T20:52:47.619Z,74.75
2023-05-19T20:56:59.413Z,74.29
2023-05-19T21:01:11.264Z,74.40
2023-05-19T21:05:23.016Z,74.24
2023-05-19T21:09:34.676Z,74.40
2023-05-19T21:13:46.264Z,73.29
2023-05-19T21:17:57.884Z,73.32
2023-05-19T21:22:09.681Z,72.79
2023-05-19T21:26:22.183Z,72.76
